Time;durP1;ratioP1;P1;durP2;ratioP2;P2;SDS_P1;SDS_P2;PMS_P1;PMS_P2;Temp;Humidity;BMP_temperature;BMP_pressure;BME280_temperature;BME280_humidity;BME280_pressure;Samples;Min_cycle;Max_cycle;Signal;HPM_P1;HPM_P2
2021/12/12 00:03:52;;;;;;;57.45;32.83;;;;;;;3.14;92.58;96358.31;10335950;28;20053;-57
2021/12/12 00:09:03;;;;;;;67.63;37.60;;;;;;;3.20;92.67;96350.69;10335861;28;20563;-56
2021/12/12 00:14:15;;;;;;;78.28;42.13;;;;;;;3.17;92.66;96350.69;10335253;28;20073;-56
2021/12/12 00:19:15;;;;;;;75.97;42.58;;;;;;;3.15;92.97;96362.63;10335471;28;20088;-56
2021/12/12 00:24:15;;;;;;;73.22;39.38;;;;;;;3.23;92.71;96365.22;10334986;28;20080;-56
2021/12/12 00:29:16;;;;;;;67.80;37.55;;;;;;;3.23;92.62;96342.16;10335142;28;20057;-56
2021/12/12 00:34:15;;;;;;;65.57;37.13;;;;;;;3.35;93.12;96370.41;10334665;28;20057;-56
2021/12/12 00:39:16;;;;;;;;;;;;;;;3.33;92.76;96369.56;10335428;28;20485;-56
2021/12/12 00:44:15;;;;;;;60.88;33.05;;;;;;;3.27;92.69;96366.09;10334125;28;19948;-56
2021/12/12 00:49:16;;;;;;;;;;;;;;;3.41;92.85;96380.69;10334496;28;20073;-56
2021/12/12 00:54:16;;;;;;;50.13;27.30;;;;;;;3.40;93.13;96331.97;10334411;28;20411;-56
2021/12/12 00:59:15;;;;;;;58.65;31.17;;;;;;;3.26;93.08;96313.97;10333923;28;20489;-56
2021/12/12 01:04:17;;;;;;;;;;;;;;;3.32;92.92;96339.63;10333951;28;20072;-56
2021/12/12 01:09:29;;;;;;;53.28;28.20;;;;;;;3.37;93.32;96348.19;10333754;28;19959;-56
2021/12/12 01:14:33;;;;;;;52.72;28.65;;;;;;;3.28;93.46;96378.06;10333262;28;20072;-58
2021/12/12 01:19:41;;;;;;;56.25;30.88;;;;;;;3.24;93.50;96369.53;10333089;28;20079;-56
2021/12/12 01:24:47;;;;;;;56.90;30.83;;;;;;;3.19;93.46;96381.41;10332965;28;20068;-56
2021/12/12 01:29:49;;;;;;;64.15;32.78;;;;;;;3.28;93.25;96412.25;10331721;28;20068;-56
2021/12/12 01:34:51;;;;;;;63.33;32.97;;;;;;;3.31;92.91;96384.06;10330982;28;20497;-56
2021/12/12 01:39:52;;;;;;;60.83;33.75;;;;;;;3.33;92.89;96381.50;10332626;28;20064;-56
2021/12/12 01:45:07;;;;;;;72.25;40.85;;;;;;;3.32;92.89;96379.81;10333077;28;20132;-56
2021/12/12 01:50:17;;;;;;;69.75;36.95;;;;;;;3.29;92.67;96385.78;10332217;28;20073;-56
2021/12/12 01:55:30;;;;;;;99.38;49.92;;;;;;;3.18;92.87;96382.28;10332769;28;20080;-56
2021/12/12 02:00:37;;;;;;;91.53;47.60;;;;;;;3.21;92.75;96380.63;10330537;28;20111;-56
2021/12/12 02:05:38;;;;;;;73.85;39.33;;;;;;;3.14;92.12;96383.09;10330245;28;20138;-57
2021/12/12 02:10:42;;;;;;;76.10;41.67;;;;;;;3.01;92.61;96384.75;10331358;28;20069;-57
2021/12/12 02:15:48;;;;;;;81.90;41.85;;;;;;;2.94;91.94;96404.34;10332022;28;20488;-56
2021/12/12 02:21:29;;;;;;;78.75;39.97;;;;;;;2.85;92.18;96409.41;10331356;28;20073;-57
2021/12/12 02:36:53;;;;;;;112.13;56.08;;;;;;;2.34;92.72;96405.56;10331197;28;20069;-56
2021/12/12 02:41:53;;;;;;;;;;;;;;;2.24;93.06;96414.84;10333749;28;20064;-57
2021/12/12 02:46:56;;;;;;;106.53;52.90;;;;;;;2.19;92.88;96413.94;10339443;28;19971;-57
2021/12/12 02:51:55;;;;;;;105.88;50.60;;;;;;;2.12;92.60;96415.59;10338696;28;20452;-57
2021/12/12 02:56:55;;;;;;;112.55;51.65;;;;;;;2.07;92.67;96431.75;10338116;28;20504;-57
2021/12/12 03:02:06;;;;;;;153.02;60.53;;;;;;;1.98;93.10;96416.28;10337179;28;20081;-56
2021/12/12 03:07:07;;;;;;;213.45;68.80;;;;;;;1.85;93.06;96410.16;10336731;28;20517;-57
2021/12/12 03:12:14;;;;;;;387.52;67.95;;;;;;;1.70;93.50;96406.59;10338472;28;20057;-57
2021/12/12 03:17:20;;;;;;;244.27;51.35;;;;;;;1.54;93.74;96443.88;10337257;28;20064;-56
2021/12/12 03:22:20;;;;;;;357.15;50.75;;;;;;;1.35;94.11;96443.63;10336612;28;20072;-57
2021/12/12 03:27:20;;;;;;;305.67;42.78;;;;;;;1.41;94.22;96438.59;10336925;28;20057;-56
2021/12/12 03:32:22;;;;;;;319.75;44.72;;;;;;;1.56;94.23;96449.03;10337116;28;20057;-57
2021/12/12 03:37:25;;;;;;;426.75;54.47;;;;;;;1.63;94.29;96435.50;10337528;28;20065;-57
2021/12/12 03:42:28;;;;;;;417.00;58.92;;;;;;;1.68;94.69;96450.88;10336515;28;20491;-57
2021/12/12 03:47:40;;;;;;;189.10;43.35;;;;;;;1.74;94.86;96445.88;10336627;28;20065;-57
2021/12/12 03:52:39;;;;;;;285.80;46.88;;;;;;;1.73;94.30;96470.56;10335921;28;20061;-56
2021/12/12 03:57:39;;;;;;;351.00;56.13;;;;;;;1.67;94.11;96478.16;10336256;28;20108;-57
2021/12/12 04:02:38;;;;;;;;;;;;;;;1.61;94.34;96490.84;10337084;28;20072;-57
2021/12/12 04:07:37;;;;;;;214.93;43.25;;;;;;;1.56;94.56;96487.38;10335960;28;19916;-57
2021/12/12 04:12:36;;;;;;;293.02;49.70;;;;;;;1.63;93.89;96488.34;10335795;28;20071;-57
2021/12/12 04:17:35;;;;;;;348.83;54.45;;;;;;;1.58;93.91;96483.16;10335398;28;20036;-56
2021/12/12 04:22:34;;;;;;;;;;;;;;;1.58;93.92;96508.72;10336494;28;20064;-57
2021/12/12 04:27:33;;;;;;;341.42;54.83;;;;;;;1.68;93.90;96523.34;10334780;28;19948;-57
2021/12/12 04:32:33;;;;;;;524.53;87.63;;;;;;;1.61;94.37;96529.22;10334693;28;20053;-57
2021/12/12 04:37:33;;;;;;;470.15;93.15;;;;;;;1.44;94.04;96534.09;10335053;28;20072;-56
2021/12/12 04:42:35;;;;;;;175.13;47.60;;;;;;;1.26;95.20;96546.56;10334338;28;20559;-57
2021/12/12 04:53:36;;;;;;;122.40;40.00;;;;;;;1.25;94.37;96563.59;10332710;28;20453;-57
2021/12/12 04:58:43;;;;;;;96.32;40.45;;;;;;;1.23;93.73;96567.84;10334136;28;20107;-57
2021/12/12 05:04:02;;;;;;;83.55;39.63;;;;;;;1.02;93.87;96577.69;10333310;28;20495;-57
2021/12/12 05:09:07;;;;;;;91.32;41.92;;;;;;;1.09;93.76;96592.28;10332974;28;20534;-56
2021/12/12 05:14:22;;;;;;;100.53;51.60;;;;;;;1.02;93.65;96618.56;10333148;28;20103;-56
2021/12/12 05:19:26;;;;;;;103.60;49.92;;;;;;;0.96;94.74;96633.78;10332794;28;20100;-56
2021/12/12 05:24:28;;;;;;;108.95;51.55;;;;;;;0.99;94.60;96639.81;10331107;28;20065;-56
2021/12/12 05:29:32;;;;;;;114.75;55.88;;;;;;;0.99;94.67;96652.59;10332699;28;20061;-57
2021/12/12 05:34:34;;;;;;;107.53;53.90;;;;;;;0.94;94.88;96666.09;10329229;28;20139;-56
2021/12/12 05:39:34;;;;;;;103.28;51.70;;;;;;;1.01;94.70;96668.78;10332201;28;20458;-57
2021/12/12 05:44:34;;;;;;;110.28;55.85;;;;;;;0.96;94.34;96654.22;10332097;28;20057;-57
2021/12/12 05:49:36;;;;;;;101.72;53.58;;;;;;;1.10;94.68;96673.19;10331750;28;20519;-56
2021/12/12 05:54:36;;;;;;;99.90;52.28;;;;;;;1.09;94.28;96669.78;10332079;28;20077;-57
2021/12/12 05:59:37;;;;;;;99.35;52.80;;;;;;;1.19;94.35;96683.59;10330887;28;20625;-57
2021/12/12 06:04:36;;;;;;;98.55;53.30;;;;;;;1.27;93.99;96701.63;10330503;28;20053;-57
2021/12/12 06:09:36;;;;;;;108.43;62.28;;;;;;;1.27;94.08;96711.84;10331455;28;20496;-57
2021/12/12 06:14:36;;;;;;;110.13;61.83;;;;;;;1.27;94.55;96722.94;10331625;28;20064;-58
2021/12/12 06:19:37;;;;;;;115.30;62.17;;;;;;;1.44;94.41;96727.50;10338597;28;20061;-58
2021/12/12 06:24:38;;;;;;;120.40;67.50;;;;;;;1.59;94.09;96749.91;10339521;28;20065;-58
2021/12/12 06:29:38;;;;;;;144.48;82.55;;;;;;;1.48;94.76;96737.81;10339694;28;20487;-58
2021/12/12 06:34:37;;;;;;;134.57;76.53;;;;;;;1.59;94.31;96763.56;10339138;28;20452;-57
2021/12/12 06:39:37;;;;;;;142.98;81.43;;;;;;;1.70;94.58;96781.66;10337416;28;20536;-57
2021/12/12 06:44:39;;;;;;;244.50;134.30;;;;;;;1.79;94.40;96789.50;10339039;28;20970;-58
2021/12/12 06:49:38;;;;;;;275.08;148.25;;;;;;;1.83;94.27;96804.03;10328360;28;20058;-58
2021/12/12 06:54:39;;;;;;;298.85;170.13;;;;;;;1.89;94.39;96804.16;10297862;28;20069;-57
2021/12/12 06:59:39;;;;;;;202.15;118.85;;;;;;;2.05;94.28;96807.84;10302955;28;20195;-58
2021/12/12 07:04:41;;;;;;;176.95;104.13;;;;;;;2.21;94.38;96801.31;10298692;28;20448;-58
2021/12/12 07:09:41;;;;;;;178.52;106.28;;;;;;;2.39;94.31;96813.50;10297376;28;20061;-58
2021/12/12 07:14:41;;;;;;;182.48;117.78;;;;;;;2.45;94.20;96815.34;10297059;28;20104;-58
2021/12/12 07:19:40;;;;;;;244.55;145.55;;;;;;;2.77;94.92;96841.44;10320724;28;20156;-58
2021/12/12 07:24:40;;;;;;;222.95;141.70;;;;;;;2.97;95.40;96849.41;10337183;28;20064;-58
2021/12/12 07:29:39;;;;;;;219.10;136.80;;;;;;;3.37;95.49;96873.00;10336103;28;20137;-58
2021/12/12 07:34:38;;;;;;;124.65;84.95;;;;;;;3.62;95.73;96869.06;10337070;28;20072;-58
2021/12/12 07:39:39;;;;;;;;;;;;;;;3.93;96.08;96889.94;10337221;28;20484;-57
2021/12/12 07:44:40;;;;;;;101.97;67.80;;;;;;;4.25;96.23;96900.56;10336378;28;19956;-57
2021/12/12 07:49:44;;;;;;;26.15;17.33;;;;;;;4.54;96.51;96907.66;10337065;28;20532;-57
2021/12/12 07:54:45;;;;;;;21.65;15.55;;;;;;;4.84;96.13;96907.06;10335405;28;20532;-57
2021/12/12 07:59:45;;;;;;;22.80;15.07;;;;;;;5.13;95.83;96922.72;10336018;28;20085;-57
2021/12/12 08:04:46;;;;;;;21.50;14.88;;;;;;;5.43;95.68;96946.94;10335771;28;20061;-58
2021/12/12 08:09:46;;;;;;;16.60;11.00;;;;;;;5.67;95.94;96956.50;10335652;28;20077;-57
2021/12/12 08:14:49;;;;;;;19.83;11.57;;;;;;;5.88;95.23;96956.63;10333000;28;20072;-57
2021/12/12 08:19:50;;;;;;;17.65;12.63;;;;;;;6.03;95.29;96968.72;10332156;28;20065;-57
2021/12/12 08:24:49;;;;;;;13.63;9.98;;;;;;;6.02;94.40;96956.66;10329252;28;20069;-58
2021/12/12 08:29:50;;;;;;;15.57;11.07;;;;;;;6.16;93.81;96990.22;10333957;28;20064;-57
2021/12/12 08:34:50;;;;;;;13.70;10.00;;;;;;;6.22;93.42;97008.28;10334145;28;20065;-57
2021/12/12 08:39:49;;;;;;;9.30;6.85;;;;;;;6.27;91.82;97004.00;10332618;28;20468;-57
2021/12/12 08:44:49;;;;;;;7.28;4.85;;;;;;;6.46;91.03;97014.38;10334190;28;20048;-58
2021/12/12 08:49:48;;;;;;;9.80;6.70;;;;;;;6.63;90.06;97017.00;10366164;28;20071;-58
2021/12/12 08:54:50;;;;;;;9.35;6.88;;;;;;;6.84;89.84;97017.03;10342739;28;20061;-58
2021/12/12 08:59:51;;;;;;;9.77;6.88;;;;;;;6.97;89.02;97020.53;10330261;28;20476;-58
2021/12/12 09:04:58;;;;;;;8.73;6.13;;;;;;;7.04;88.01;97017.94;10332773;28;20065;-58
2021/12/12 09:10:09;;;;;;;7.78;5.28;;;;;;;7.13;87.31;97031.72;10333592;28;20061;-58
2021/12/12 09:15:21;;;;;;;7.82;5.28;;;;;;;7.09;86.54;97022.25;10332921;28;20073;-58
2021/12/12 09:20:25;;;;;;;7.75;5.43;;;;;;;7.31;86.29;97028.28;10332582;28;20064;-57
2021/12/12 09:25:31;;;;;;;9.77;6.90;;;;;;;7.43;84.56;97038.66;10332835;28;20535;-57
2021/12/12 09:30:31;;;;;;;11.50;8.18;;;;;;;7.61;83.92;97048.94;10331989;28;20483;-57
2021/12/12 09:35:35;;;;;;;;;;;;;;;7.80;82.58;97054.97;10332361;28;20513;-57
2021/12/12 09:41:04;;;;;;;11.07;7.00;;;;;;;8.12;83.41;97061.78;10330729;28;19974;-57
2021/12/12 09:46:19;;;;;;;15.18;9.77;;;;;;;8.29;79.58;97053.97;10335879;28;20061;-57
2021/12/12 09:51:29;;;;;;;8.98;5.50;;;;;;;8.38;78.39;97051.38;10370126;28;20069;-57
2021/12/12 09:56:43;;;;;;;9.68;6.32;;;;;;;8.56;78.34;97054.75;10372189;28;20095;-57
2021/12/12 10:01:48;;;;;;;13.88;9.98;;;;;;;8.61;75.30;97042.66;10372684;28;20072;-57
2021/12/12 10:07:02;;;;;;;7.35;5.20;;;;;;;8.82;76.74;97041.69;10370829;28;20076;-57
2021/12/12 10:12:15;;;;;;;7.82;5.28;;;;;;;9.00;74.75;97043.31;10371443;28;20511;-57
2021/12/12 10:17:37;;;;;;;5.30;3.80;;;;;;;9.17;76.46;97049.25;10372252;28;20076;-57
2021/12/12 10:22:48;;;;;;;9.82;6.55;;;;;;;9.06;71.28;97053.63;10372040;28;20130;-58
2021/12/12 10:27:58;;;;;;;11.02;7.75;;;;;;;8.88;70.98;97063.22;10370665;28;20064;-57
2021/12/12 10:33:14;;;;;;;;;;;;;;;8.73;68.69;97063.28;10362905;28;20618;-58
2021/12/12 10:38:21;;;;;;;4.90;3.90;;;;;;;8.79;69.53;97078.78;10331037;28;19996;-57
2021/12/12 10:43:26;;;;;;;6.65;4.15;;;;;;;8.87;71.82;97084.78;10330163;28;20065;-57
2021/12/12 10:48:34;;;;;;;5.38;4.20;;;;;;;8.93;71.98;97089.94;10355474;28;20349;-57
2021/12/12 10:53:40;;;;;;;5.28;4.03;;;;;;;9.07;71.24;97086.41;10369744;28;20119;-57
2021/12/12 10:58:54;;;;;;;6.43;5.18;;;;;;;9.44;72.46;97099.13;10369907;28;20087;-57
2021/12/12 11:04:03;;;;;;;6.20;4.85;;;;;;;9.66;70.76;97108.47;10374231;28;20064;-57
2021/12/12 11:09:22;;;;;;;9.53;6.00;;;;;;;9.50;63.80;97101.69;10378604;28;20502;-57
2021/12/12 11:14:34;;;;;;;15.48;10.63;;;;;;;9.41;66.33;97097.44;10377981;28;20064;-58
2021/12/12 11:20:02;;;;;;;7.20;5.70;;;;;;;9.55;68.16;97105.94;10377941;28;20076;-57
2021/12/12 11:25:10;;;;;;;9.38;7.03;;;;;;;9.62;67.28;97111.94;10378189;28;20052;-57
2021/12/12 11:30:12;;;;;;;8.55;6.28;;;;;;;9.68;70.33;97114.50;10378080;28;20061;-57
2021/12/12 11:35:15;;;;;;;7.55;6.00;;;;;;;9.69;67.76;97113.63;10349442;28;20483;-57
2021/12/12 11:40:52;;;;;;;6.60;5.30;;;;;;;9.69;68.73;97123.13;10335903;28;20064;-58
2021/12/12 11:45:57;;;;;;;7.28;5.32;;;;;;;9.35;68.41;97139.78;10339387;28;20081;-57
2021/12/12 11:51:05;;;;;;;8.27;6.03;;;;;;;9.17;69.79;97144.16;10377327;28;20075;-57
2021/12/12 11:56:30;;;;;;;9.38;7.00;;;;;;;8.97;68.74;97149.41;10375818;28;20073;-58
2021/12/12 12:01:44;;;;;;;6.57;5.13;;;;;;;8.65;69.62;97145.25;10376873;28;20468;-57
2021/12/12 12:07:04;;;;;;;6.25;4.90;;;;;;;8.66;70.90;97157.31;10376243;28;20361;-58
2021/12/12 12:12:25;;;;;;;6.55;4.93;;;;;;;8.60;70.76;97157.31;10376596;28;20511;-57
2021/12/12 12:17:58;;;;;;;7.57;5.47;;;;;;;8.45;70.98;97158.22;10375646;28;20056;-58
2021/12/12 12:23:20;;;;;;;11.50;7.22;;;;;;;8.29;70.72;97170.31;10376324;28;20071;-58
2021/12/12 12:28:28;;;;;;;9.40;6.80;;;;;;;8.16;71.37;97173.78;10375591;28;20057;-58
2021/12/12 12:33:42;;;;;;;16.77;13.38;;;;;;;7.93;71.47;97190.16;10361971;28;20536;-57
2021/12/12 12:39:15;;;;;;;16.25;13.25;;;;;;;7.37;73.03;97194.31;10334703;28;20063;-58
2021/12/12 12:44:32;;;;;;;19.73;14.38;;;;;;;7.05;74.94;97212.28;10330858;28;20065;-57
2021/12/12 12:50:09;;;;;;;16.85;13.40;;;;;;;6.70;76.71;97223.31;10332253;28;20061;-57
2021/12/12 12:55:33;;;;;;;13.73;10.48;;;;;;;6.19;79.66;97227.25;10333326;28;20057;-57
2021/12/12 13:00:35;;;;;;;19.92;14.95;;;;;;;5.81;80.92;97234.63;10332959;28;20107;-57
2021/12/12 13:06:08;;;;;;;18.80;13.82;;;;;;;5.42;82.60;97247.13;10343786;28;20456;-57
2021/12/12 13:11:10;;;;;;;32.28;20.17;;;;;;;5.13;83.33;97239.94;10287021;28;20131;-58
2021/12/12 13:16:44;;;;;;;34.22;22.58;;;;;;;5.00;84.31;97262.91;10292565;28;20527;-57
2021/12/12 13:22:17;;;;;;;27.90;18.05;;;;;;;4.93;85.49;97274.78;10273034;28;20138;-58
2021/12/12 13:28:18;;;;;;;28.55;19.35;;;;;;;4.87;86.14;97274.69;10291844;28;20061;-58
2021/12/12 13:33:18;;;;;;;21.30;14.57;;;;;;;4.68;86.91;97282.13;10300894;28;20680;-58
2021/12/12 13:38:28;;;;;;;16.63;11.63;;;;;;;4.51;86.71;97317.00;10332500;28;20063;-57
2021/12/12 13:44:12;;;;;;;17.38;11.98;;;;;;;4.33;86.98;97321.84;10331770;28;20069;-57
2021/12/12 13:49:11;;;;;;;19.15;13.60;;;;;;;4.17;86.95;97329.28;10350258;28;20075;-57
2021/12/12 13:54:22;;;;;;;12.52;7.80;;;;;;;3.94;86.58;97343.41;10331961;28;20021;-57
2021/12/12 13:59:33;;;;;;;11.55;8.02;;;;;;;3.74;86.47;97349.03;10331861;28;20191;-59
2021/12/12 14:05:01;;;;;;;28.58;16.08;;;;;;;3.62;86.82;97364.22;10329922;28;20061;-57
2021/12/12 14:10:03;;;;;;;25.73;17.00;;;;;;;3.41;87.34;97380.88;10330450;28;20061;-57
2021/12/12 14:15:11;;;;;;;27.88;18.52;;;;;;;3.17;88.21;97378.66;10331337;28;20065;-58
2021/12/12 14:20:17;;;;;;;20.67;14.38;;;;;;;3.14;88.51;97382.84;10329516;28;20076;-58
2021/12/12 14:25:17;;;;;;;24.80;17.77;;;;;;;3.14;88.59;97390.53;10330330;28;20071;-58
2021/12/12 14:30:19;;;;;;;34.03;23.00;;;;;;;2.86;89.51;97379.66;10330126;28;20068;-58
2021/12/12 14:35:21;;;;;;;22.98;15.50;;;;;;;2.95;89.44;97402.94;10329326;28;20100;-57
2021/12/12 14:40:26;;;;;;;17.58;13.10;;;;;;;2.81;89.58;97420.53;10306920;28;20065;-57
2021/12/12 14:45:38;;;;;;;8.15;6.75;;;;;;;2.64;89.84;97428.66;10298023;28;20061;-57
2021/12/12 14:50:48;;;;;;;15.93;10.90;;;;;;;2.72;89.75;97442.53;10257688;28;20124;-56
2021/12/12 14:56:08;;;;;;;20.50;12.52;;;;;;;2.67;89.38;97426.19;10338432;28;20476;-58
2021/12/12 15:01:20;;;;;;;15.10;10.25;;;;;;;2.50;89.56;97446.25;10337914;28;20081;-57
2021/12/12 15:06:24;;;;;;;18.30;13.00;;;;;;;2.34;89.34;97465.47;10367769;28;20088;-58
2021/12/12 15:11:34;;;;;;;19.92;13.85;;;;;;;2.23;89.33;97459.19;10377561;28;20072;-57
2021/12/12 15:16:37;;;;;;;35.60;23.75;;;;;;;2.23;89.45;97472.88;10378557;28;20065;-58
2021/12/12 15:21:40;;;;;;;22.40;14.20;;;;;;;2.17;89.25;97472.69;10378461;28;20116;-57
2021/12/12 15:26:41;;;;;;;29.92;18.20;;;;;;;2.25;89.11;97490.81;10375503;28;20057;-57
2021/12/12 15:31:50;;;;;;;18.05;12.60;;;;;;;2.34;89.25;97501.31;10377773;28;20075;-57
2021/12/12 15:36:57;;;;;;;15.13;10.45;;;;;;;2.29;89.64;97503.75;10377800;28;20507;-57
2021/12/12 15:42:03;;;;;;;13.40;8.35;;;;;;;2.13;89.64;97505.00;10374208;28;20071;-58
2021/12/12 15:47:07;;;;;;;16.48;11.55;;;;;;;2.09;89.33;97523.69;10374157;28;20484;-60
2021/12/12 15:52:15;;;;;;;15.20;9.95;;;;;;;1.97;89.53;97531.00;10373203;28;20679;-57
2021/12/12 15:57:17;;;;;;;15.43;11.27;;;;;;;1.86;89.92;97535.81;10377045;28;20139;-58
2021/12/12 16:02:29;;;;;;;13.05;8.45;;;;;;;1.65;89.81;97548.81;10376591;28;20076;-58
2021/12/12 16:07:29;;;;;;;12.63;8.15;;;;;;;1.52;90.16;97541.59;10376618;28;20071;-58
2021/12/12 16:12:28;;;;;;;11.52;7.88;;;;;;;1.35;90.49;97558.09;10376846;28;20072;-58
2021/12/12 16:17:32;;;;;;;9.43;6.65;;;;;;;1.30;90.17;97566.47;10375911;28;20069;-58
2021/12/12 16:22:35;;;;;;;13.18;7.90;;;;;;;1.21;90.65;97576.41;10376432;28;20072;-58
2021/12/12 16:27:39;;;;;;;11.35;7.50;;;;;;;1.22;90.63;97582.38;10375963;28;20064;-59
2021/12/12 16:32:43;;;;;;;13.77;8.90;;;;;;;1.16;90.91;97588.16;10373670;28;20125;-58
2021/12/12 16:37:45;;;;;;;19.90;12.50;;;;;;;1.07;90.38;97575.94;10373518;28;20072;-58
2021/12/12 16:42:52;;;;;;;17.20;11.18;;;;;;;0.97;90.58;97601.16;10375451;28;20083;-58
2021/12/12 16:47:54;;;;;;;13.20;8.23;;;;;;;0.69;90.15;97590.84;10374734;28;20064;-58
2021/12/12 16:52:55;;;;;;;18.02;12.40;;;;;;;0.79;89.94;97615.00;10374791;28;20064;-58
2021/12/12 16:58:29;;;;;;;23.67;15.68;;;;;;;0.66;90.07;97621.41;10374740;28;20107;-58
2021/12/12 17:03:51;;;;;;;19.33;11.88;;;;;;;0.55;90.28;97630.34;10362392;28;20164;-58
2021/12/12 17:13:51;;;;;;;30.65;20.58;;;;;;;0.63;90.28;97645.94;10374093;28;20064;-58
2021/12/12 17:18:52;;;;;;;27.60;17.33;;;;;;;0.58;90.28;97637.25;10373981;28;20105;-58
2021/12/12 17:24:00;;;;;;;32.88;20.13;;;;;;;0.62;90.40;97655.28;10374332;28;20079;-63
2021/12/12 17:29:04;;;;;;;40.92;24.85;;;;;;;0.59;90.71;97659.41;10372719;28;20060;-58
2021/12/12 17:34:13;;;;;;;25.42;16.95;;;;;;;0.60;90.61;97648.38;10371342;28;20099;-58
2021/12/12 17:39:25;;;;;;;33.27;23.57;;;;;;;0.57;90.55;97645.69;10372787;28;20064;-58
2021/12/12 17:44:54;;;;;;;29.13;20.00;;;;;;;0.57;90.58;97651.69;10371869;28;20307;-58
2021/12/12 17:50:16;;;;;;;30.13;20.52;;;;;;;0.59;90.32;97655.19;10372922;28;20064;-58
2021/12/12 17:55:24;;;;;;;33.53;22.95;;;;;;;0.49;90.54;97655.63;10361001;28;20087;-58
2021/12/12 18:00:45;;;;;;;43.40;27.10;;;;;;;0.49;90.40;97683.72;10370627;28;20150;-58
2021/12/12 18:05:51;;;;;;;45.10;28.73;;;;;;;0.43;90.56;97681.81;10372463;28;20068;-58
2021/12/12 18:10:50;;;;;;;43.63;28.38;;;;;;;0.42;90.60;97686.88;10370785;28;20072;-58
2021/12/12 18:15:54;;;;;;;58.30;35.65;;;;;;;0.42;90.43;97692.84;10370185;28;20049;-58
2021/12/12 18:20:55;;;;;;;58.35;38.28;;;;;;;0.37;90.92;97693.47;10372203;28;20068;-58
2021/12/12 18:25:59;;;;;;;44.63;28.88;;;;;;;0.31;90.79;97665.16;10372521;28;20060;-57
2021/12/12 18:31:10;;;;;;;46.38;30.98;;;;;;;0.42;91.02;97687.72;10371713;28;20064;-58
2021/12/12 18:36:38;;;;;;;50.58;32.50;;;;;;;0.54;90.83;97686.44;10371302;28;20061;-58
2021/12/12 18:41:43;;;;;;;59.88;35.30;;;;;;;0.67;90.82;97683.53;10369937;28;20072;-58
2021/12/12 18:46:43;;;;;;;60.00;35.83;;;;;;;0.74;90.64;97677.84;10370362;28;20060;-58
2021/12/12 18:51:47;;;;;;;43.60;29.33;;;;;;;0.81;90.76;97689.16;10371194;28;20578;-58
2021/12/12 18:56:50;;;;;;;28.80;19.20;;;;;;;0.74;90.75;97685.50;10371400;28;20107;-58
2021/12/12 19:02:05;;;;;;;51.75;35.22;;;;;;;0.79;91.00;97688.22;10369435;28;20079;-58
2021/12/12 19:07:09;;;;;;;23.63;15.30;;;;;;;0.76;91.04;97694.09;10371103;28;20518;-58
2021/12/12 19:12:08;;;;;;;39.78;25.13;;;;;;;0.76;91.01;97701.75;10369406;28;20511;-58
2021/12/12 19:17:14;;;;;;;41.75;26.45;;;;;;;0.78;90.77;97710.34;10371598;28;20503;-58
2021/12/12 19:22:18;;;;;;;39.78;28.13;;;;;;;0.81;90.58;97717.25;10370784;28;20068;-58
2021/12/12 19:27:23;;;;;;;41.58;29.05;;;;;;;0.84;90.77;97722.47;10376440;28;20064;-59
2021/12/12 19:32:26;;;;;;;39.83;26.17;;;;;;;0.86;90.82;97724.25;10378017;28;20061;-58
2021/12/12 19:37:27;;;;;;;46.58;29.73;;;;;;;0.87;90.73;97720.91;10377680;28;20068;-58
2021/12/12 19:42:38;;;;;;;71.95;50.20;;;;;;;0.90;90.56;97723.56;10377131;28;20498;-58
2021/12/12 19:47:40;;;;;;;39.13;29.65;;;;;;;0.82;90.65;97735.16;10378037;28;20056;-58
2021/12/12 19:52:40;;;;;;;31.25;20.48;;;;;;;0.84;91.04;97740.34;10376972;28;20072;-58
2021/12/12 19:57:43;;;;;;;48.00;32.03;;;;;;;0.79;90.90;97745.28;10375163;28;20588;-58
2021/12/12 20:02:44;;;;;;;50.00;33.67;;;;;;;0.84;91.12;97748.00;10377159;28;20500;-58
2021/12/12 20:07:43;;;;;;;53.28;34.15;;;;;;;0.96;90.94;97752.69;10376400;28;20491;-57
2021/12/12 20:12:50;;;;;;;40.83;27.65;;;;;;;0.98;91.05;97753.63;10376170;28;20500;-57
2021/12/12 20:17:52;;;;;;;30.90;19.45;;;;;;;0.94;90.39;97749.22;10376519;28;20096;-57
2021/12/12 20:22:57;;;;;;;24.45;16.55;;;;;;;0.94;91.07;97767.09;10373875;28;20083;-59
2021/12/12 20:28:05;;;;;;;20.63;13.00;;;;;;;0.95;90.78;97767.16;10376067;28;20064;-57
2021/12/12 20:33:23;;;;;;;19.88;14.07;;;;;;;0.95;90.95;97763.75;10374536;28;20487;-57
2021/12/12 20:38:28;;;;;;;20.27;14.55;;;;;;;1.00;91.05;97780.09;10375077;28;20076;-58
2021/12/12 20:43:32;;;;;;;22.20;15.10;;;;;;;0.96;90.96;97778.25;10374619;28;20068;-58
2021/12/12 20:48:39;;;;;;;15.35;9.23;;;;;;;0.69;90.87;97755.97;10375636;28;20060;-58
2021/12/12 20:53:48;;;;;;;20.65;14.23;;;;;;;0.74;91.06;97777.44;10374453;28;20067;-58
2021/12/12 20:58:47;;;;;;;16.40;10.82;;;;;;;0.72;90.81;97779.06;10374044;28;20111;-58
2021/12/12 21:03:53;;;;;;;21.70;14.25;;;;;;;0.66;90.69;97787.38;10374327;28;20031;-58
2021/12/12 21:09:07;;;;;;;21.60;14.52;;;;;;;0.49;90.49;97783.28;10374085;28;20083;-58
2021/12/12 21:14:08;;;;;;;23.63;16.23;;;;;;;0.44;90.86;97803.53;10373870;28;20474;-59
2021/12/12 21:19:12;;;;;;;25.58;18.27;;;;;;;0.38;90.75;97805.88;10373577;28;20060;-58
2021/12/12 21:24:18;;;;;;;31.75;22.60;;;;;;;0.29;91.06;97797.84;10373712;28;20495;-58
2021/12/12 21:29:19;;;;;;;24.13;17.45;;;;;;;0.26;91.12;97808.81;10372712;28;20061;-58
2021/12/12 21:34:19;;;;;;;22.88;16.08;;;;;;;0.17;91.08;97810.97;10372337;28;20065;-58
2021/12/12 21:39:40;;;;;;;31.30;20.95;;;;;;;0.22;91.08;97812.03;10372824;28;20071;-58
2021/12/12 21:44:47;;;;;;;29.25;18.23;;;;;;;0.20;90.85;97820.44;10373026;28;20068;-58
2021/12/12 21:49:55;;;;;;;27.00;18.52;;;;;;;0.24;90.79;97812.06;10371486;28;20075;-58
2021/12/12 21:54:54;;;;;;;21.40;14.73;;;;;;;0.29;90.70;97812.25;10372430;28;20072;-58
2021/12/12 22:00:20;;;;;;;25.30;15.68;;;;;;;0.31;90.62;97813.19;10372446;28;20060;-58
2021/12/12 22:05:29;;;;;;;24.27;15.20;;;;;;;0.28;90.81;97816.50;10372255;28;20519;-58
2021/12/12 22:10:29;;;;;;;29.50;18.30;;;;;;;0.30;90.35;97814.88;10372009;28;20087;-58
2021/12/12 22:15:28;;;;;;;23.95;16.10;;;;;;;0.32;90.55;97807.31;10369880;28;20073;-58
2021/12/12 22:20:29;;;;;;;;;;;;;;;0.35;90.76;97803.16;10372421;28;20407;-58
2021/12/12 22:25:51;;;;;;;16.60;11.27;;;;;;;0.41;90.25;97798.31;10371577;28;20404;-57
2021/12/12 22:30:51;;;;;;;19.45;13.40;;;;;;;0.44;90.44;97798.44;10372176;28;20072;-58
2021/12/12 22:35:54;;;;;;;23.23;15.32;;;;;;;0.49;90.54;97790.94;10371044;28;20061;-58
2021/12/12 22:41:01;;;;;;;17.20;11.00;;;;;;;0.29;90.12;97761.22;10371931;28;20075;-58
2021/12/12 22:46:05;;;;;;;22.88;12.98;;;;;;;0.44;90.24;97784.81;10371769;28;20063;-58
2021/12/12 22:51:10;;;;;;;18.80;13.77;;;;;;;0.47;90.18;97775.59;10371755;28;20099;-58
2021/12/12 22:56:25;;;;;;;18.33;12.70;;;;;;;0.50;90.05;97767.19;10370922;28;20076;-58
2021/12/12 23:01:39;;;;;;;25.50;17.15;;;;;;;0.55;90.04;97780.13;10377832;28;20076;-58
2021/12/12 23:06:52;;;;;;;23.58;16.33;;;;;;;0.60;90.08;97776.94;10379072;28;20061;-58
2021/12/12 23:11:59;;;;;;;48.13;31.30;;;;;;;0.67;90.29;97780.59;10374955;28;20064;-58
2021/12/12 23:17:02;;;;;;;29.13;19.83;;;;;;;0.70;90.05;97780.69;10375227;28;20064;-58
2021/12/12 23:22:16;;;;;;;32.28;20.30;;;;;;;0.66;89.91;97781.38;10376478;28;20073;-58
2021/12/12 23:27:23;;;;;;;27.13;18.55;;;;;;;0.62;89.86;97779.53;10378254;28;20061;-58
2021/12/12 23:32:29;;;;;;;24.63;16.52;;;;;;;0.45;89.62;97773.75;10378424;28;20056;-58
2021/12/12 23:37:36;;;;;;;23.00;16.00;;;;;;;0.31;89.57;97778.34;10377013;28;20118;-58
2021/12/12 23:43:13;;;;;;;26.60;16.98;;;;;;;0.33;90.18;97773.28;10377194;28;20068;-58
2021/12/12 23:48:21;;;;;;;23.27;15.90;;;;;;;0.42;90.36;97779.63;10374022;28;20068;-58
2021/12/12 23:53:35;;;;;;;27.27;17.65;;;;;;;0.42;90.36;97761.75;10375744;28;20098;-58
2021/12/12 23:58:42;;;;;;;29.98;18.73;;;;;;;0.58;90.32;97782.78;10376970;28;20084;-58
